www.cux-wetter.de
Wetterdaten: Sonntag, 24.12.2006
Datum Zeit Temp. A. Feuchte A. Luftdruck Regen Wind Richtung Richtung Sonnenschein Solar Taupunkt Windchill Windben
24.12.2006 00:01 7,5 C 87 % 1040,5 hPa 0,0 l/m 0,6 km/h (0 Bft) N 350 0 min 0 W/m 5,5 C 7,5 C 0,6 km/h (0 Bft)
24.12.2006 00:16 7,5 C 87 % 1040,5 hPa 0,0 l/m 3,6 km/h (1 Bft) N-NW 340 0 min 0 W/m 5,5 C 7,5 C 3,6 km/h (1 Bft)
24.12.2006 00:31 7,4 C 86 % 1040,5 hPa 0,0 l/m 0,1 km/h (0 Bft) N-NO 15 0 min 0 W/m 5,2 C 7,4 C 0,1 km/h (0 Bft)
24.12.2006 00:46 7,3 C 86 % 1040,5 hPa 0,0 l/m 6,7 km/h (2 Bft) N-NO 15 0 min 0 W/m 5,1 C 7,1 C 6,7 km/h (2 Bft)
24.12.2006 01:01 7,3 C 87 % 1040,5 hPa 0,0 l/m 1,0 km/h (0 Bft) N 360 0 min 0 W/m 5,3 C 7,3 C 1,0 km/h (0 Bft)
24.12.2006 01:16 7,3 C 86 % 1040,5 hPa 0,0 l/m 0,3 km/h (0 Bft) N-NW 330 0 min 0 W/m 5,1 C 7,3 C 0,3 km/h (0 Bft)
24.12.2006 01:31 7,2 C 86 % 1039,5 hPa 0,0 l/m 5,2 km/h (1 Bft) N-NW 340 0 min 0 W/m 5,0 C 7,2 C 5,2 km/h (1 Bft)
24.12.2006 01:46 7,4 C 87 % 1039,5 hPa 0,0 l/m 5,8 km/h (2 Bft) N 355 0 min 0 W/m 5,4 C 7,4 C 5,8 km/h (2 Bft)
24.12.2006 02:01 7,4 C 87 % 1039,5 hPa 0,0 l/m 0,6 km/h (0 Bft) NW 310 0 min 0 W/m 5,4 C 7,4 C 0,6 km/h (0 Bft)
24.12.2006 02:16 7,4 C 88 % 1039,5 hPa 0,0 l/m 8,6 km/h (2 Bft) N-NW 340 0 min 0 W/m 5,5 C 5,7 C 8,6 km/h (2 Bft)
24.12.2006 02:31 7,2 C 89 % 1039,5 hPa 0,0 l/m 7,4 km/h (2 Bft) N 5 0 min 0 W/m 5,5 C 6,4 C 7,4 km/h (2 Bft)
24.12.2006 02:46 7,2 C 91 % 1039,5 hPa 0,0 l/m 6,7 km/h (2 Bft) N 360 0 min 0 W/m 5,8 C 7,0 C 6,7 km/h (2 Bft)
24.12.2006 03:01 7,1 C 92 % 1039,5 hPa 0,0 l/m 6,5 km/h (2 Bft) N 350 0 min 0 W/m 5,9 C 7,0 C 6,5 km/h (2 Bft)
24.12.2006 03:16 6,9 C 92 % 1039,5 hPa 0,0 l/m 1,3 km/h (1 Bft) N-NW 345 0 min 0 W/m 5,7 C 6,9 C 1,3 km/h (1 Bft)
24.12.2006 03:31 7,0 C 92 % 1039,5 hPa 0,0 l/m 9,8 km/h (2 Bft) N 5 0 min 0 W/m 5,8 C 4,4 C 9,8 km/h (2 Bft)
24.12.2006 03:46 7,0 C 92 % 1039,5 hPa 0,0 l/m 10,0 km/h (2 Bft) N-NW 340 0 min 0 W/m 5,8 C 4,3 C 10,0 km/h (2 Bft)
24.12.2006 04:01 6,8 C 92 % 1039,5 hPa 0,0 l/m 5,3 km/h (1 Bft) NW 320 0 min 0 W/m 5,6 C 6,8 C 5,3 km/h (1 Bft)
24.12.2006 04:16 6,8 C 92 % 1039,5 hPa 0,0 l/m 0,0 km/h (0 Bft) NW 320 0 min 0 W/m 5,6 C 6,8 C 0,0 km/h (0 Bft)
24.12.2006 04:31 6,9 C 92 % 1038,5 hPa 0,0 l/m 0,0 km/h (0 Bft) NW 320 0 min 0 W/m 5,7 C 6,9 C 0,0 km/h (0 Bft)
24.12.2006 04:46 7,0 C 93 % 1038,5 hPa 0,0 l/m 0,0 km/h (0 Bft) NW 320 0 min 0 W/m 5,9 C 7,0 C 0,0 km/h (0 Bft)
24.12.2006 05:01 7,1 C 93 % 1038,5 hPa 0,0 l/m 1,5 km/h (1 Bft) NW 325 0 min 0 W/m 6,0 C 7,1 C 1,5 km/h (1 Bft)
24.12.2006 05:16 7,0 C 93 % 1038,5 hPa 0,0 l/m 1,6 km/h (1 Bft) N 360 0 min 0 W/m 5,9 C 7,0 C 1,6 km/h (1 Bft)
24.12.2006 05:31 6,9 C 94 % 1038,5 hPa 0,0 l/m 7,4 km/h (2 Bft) N 10 0 min 0 W/m 6,0 C 6,1 C 7,4 km/h (2 Bft)
24.12.2006 05:46 7,0 C 95 % 1038,5 hPa 0,0 l/m 4,8 km/h (1 Bft) N 5 0 min 0 W/m 6,3 C 7,0 C 4,8 km/h (1 Bft)
24.12.2006 06:01 7,0 C 95 % 1038,5 hPa 0,0 l/m 0,0 km/h (0 Bft) N-NO 20 0 min 0 W/m 6,3 C 7,0 C 0,0 km/h (0 Bft)
24.12.2006 06:16 7,1 C 95 % 1038,5 hPa 0,0 l/m 0,1 km/h (0 Bft) N 5 0 min 0 W/m 6,4 C 7,1 C 0,1 km/h (0 Bft)
24.12.2006 06:31 7,2 C 95 % 1038,5 hPa 0,0 l/m 0,0 km/h (0 Bft) N 355 0 min 0 W/m 6,5 C 7,2 C 0,0 km/h (0 Bft)
24.12.2006 06:46 7,2 C 95 % 1038,5 hPa 0,0 l/m 0,0 km/h (0 Bft) N 350 0 min 0 W/m 6,5 C 7,2 C 0,0 km/h (0 Bft)
24.12.2006 07:00 7,2 C 95 % 1038,5 hPa 0,0 l/m 4,0 km/h (1 Bft) N 360 0 min 0 W/m 6,5 C 7,2 C 4,0 km/h (1 Bft)
24.12.2006 07:15 7,2 C 96 % 1038,5 hPa 0,0 l/m 5,5 km/h (2 Bft) N 360 0 min 0 W/m 6,6 C 7,2 C 5,5 km/h (2 Bft)
24.12.2006 07:25 7,1 C 96 % 1038,5 hPa 0,0 l/m 6,1 km/h (2 Bft) N-NO 15 0 min 0 W/m 6,5 C 7,1 C 6,1 km/h (2 Bft)
24.12.2006 07:45 7,1 C 96 % 1038,5 hPa 0,0 l/m 0,1 km/h (0 Bft) N 355 0 min 0 W/m 6,5 C 7,1 C 0,1 km/h (0 Bft)
24.12.2006 08:00 7,2 C 96 % 1038,5 hPa 0,0 l/m 0,1 km/h (0 Bft) N-NW 330 0 min 0 W/m 6,6 C 7,2 C 0,1 km/h (0 Bft)
24.12.2006 08:15 7,2 C 96 % 1037,5 hPa 0,0 l/m 0,3 km/h (0 Bft) NW 315 0 min 0 W/m 6,6 C 7,2 C 0,3 km/h (0 Bft)
24.12.2006 08:30 7,2 C 96 % 1037,5 hPa 0,3 l/m 0,3 km/h (0 Bft) NW 320 0 min 0 W/m 6,6 C 7,2 C 0,3 km/h (0 Bft)
24.12.2006 08:45 7,3 C 96 % 1037,5 hPa 0,0 l/m 0,8 km/h (0 Bft) NW 325 0 min 0 W/m 6,7 C 7,3 C 0,8 km/h (0 Bft)
24.12.2006 09:00 7,3 C 97 % 1038,5 hPa 0,0 l/m 5,3 km/h (1 Bft) NW 315 0 min 0 W/m 6,9 C 7,3 C 5,3 km/h (1 Bft)
24.12.2006 09:15 8,5 C 97 % 1038,5 hPa 0,0 l/m 8,0 km/h (2 Bft) N 360 0 min 0 W/m 8,1 C 7,3 C 8,0 km/h (2 Bft)
24.12.2006 09:30 9,0 C 95 % 1038,5 hPa 0,0 l/m 7,4 km/h (2 Bft) N 5 0 min 0 W/m 8,2 C 8,2 C 7,4 km/h (2 Bft)
24.12.2006 09:45 9,3 C 91 % 1038,5 hPa 0,0 l/m 9,5 km/h (2 Bft) N-NW 340 0 min 0 W/m 7,9 C 7,1 C 9,5 km/h (2 Bft)
24.12.2006 10:00 8,5 C 91 % 1038,5 hPa 0,0 l/m 10,0 km/h (2 Bft) N 5 0 min 0 W/m 7,1 C 5,9 C 10,0 km/h (2 Bft)
24.12.2006 10:15 8,3 C 93 % 1038,5 hPa 0,0 l/m 9,1 km/h (2 Bft) N-NO 15 0 min 0 W/m 7,2 C 6,3 C 9,1 km/h (2 Bft)
24.12.2006 10:30 8,1 C 93 % 1038,5 hPa 0,0 l/m 10,1 km/h (2 Bft) N-NO 25 0 min 0 W/m 7,0 C 5,4 C 10,1 km/h (2 Bft)
24.12.2006 10:45 8,1 C 94 % 1038,5 hPa 0,0 l/m 8,3 km/h (2 Bft) N-NO 15 0 min 0 W/m 7,2 C 6,6 C 8,3 km/h (2 Bft)
24.12.2006 11:00 8,1 C 93 % 1038,5 hPa 0,0 l/m 14,7 km/h (3 Bft) N-NO 20 0 min 0 W/m 7,0 C 3,0 C 14,7 km/h (3 Bft)
24.12.2006 11:15 8,1 C 94 % 1038,5 hPa 0,0 l/m 13,7 km/h (3 Bft) N-NO 20 0 min 0 W/m 7,2 C 3,4 C 13,7 km/h (3 Bft)
24.12.2006 11:30 8,4 C 93 % 1038,5 hPa 0,0 l/m 10,8 km/h (2 Bft) N 10 0 min 0 W/m 7,3 C 5,3 C 10,8 km/h (2 Bft)
24.12.2006 11:45 8,4 C 92 % 1038,5 hPa 0,0 l/m 10,1 km/h (2 Bft) N 355 0 min 0 W/m 7,2 C 5,8 C 10,1 km/h (2 Bft)
24.12.2006 12:00 8,1 C 93 % 1038,5 hPa 0,0 l/m 8,7 km/h (2 Bft) N 350 0 min 0 W/m 7,0 C 6,4 C 8,7 km/h (2 Bft)
24.12.2006 12:15 8,2 C 94 % 1038,5 hPa 0,0 l/m 10,6 km/h (2 Bft) N 355 0 min 0 W/m 7,3 C 5,2 C 10,6 km/h (2 Bft)
24.12.2006 12:30 8,0 C 94 % 1038,5 hPa 0,0 l/m 14,8 km/h (3 Bft) N 5 0 min 0 W/m 7,1 C 2,8 C 14,8 km/h (3 Bft)
24.12.2006 12:45 7,9 C 94 % 1038,5 hPa 0,0 l/m 13,3 km/h (3 Bft) N 5 0 min 0 W/m 7,0 C 3,4 C 13,3 km/h (3 Bft)
24.12.2006 13:00 7,8 C 93 % 1038,5 hPa 0,0 l/m 14,3 km/h (3 Bft) N 360 0 min 0 W/m 6,7 C 2,8 C 14,3 km/h (3 Bft)
24.12.2006 13:15 7,8 C 94 % 1038,5 hPa 0,0 l/m 11,0 km/h (2 Bft) N 360 0 min 0 W/m 6,9 C 4,6 C 11,0 km/h (2 Bft)
24.12.2006 13:30 7,7 C 93 % 1038,5 hPa 0,0 l/m 19,9 km/h (4 Bft) N-NO 15 0 min 0 W/m 6,6 C 0,4 C 19,9 km/h (4 Bft)
24.12.2006 13:45 7,5 C 92 % 1038,5 hPa 0,0 l/m 19,6 km/h (3 Bft) N-NO 15 0 min 0 W/m 6,3 C 0,2 C 19,6 km/h (3 Bft)
24.12.2006 14:00 7,4 C 91 % 1038,5 hPa 0,0 l/m 18,2 km/h (3 Bft) N-NO 15 0 min 0 W/m 6,0 C 0,6 C 18,2 km/h (3 Bft)
24.12.2006 14:15 7,4 C 89 % 1037,5 hPa 0,0 l/m 16,4 km/h (3 Bft) N-NW 340 0 min 0 W/m 5,7 C 1,4 C 16,4 km/h (3 Bft)
24.12.2006 14:30 7,4 C 89 % 1037,5 hPa 0,0 l/m 12,9 km/h (3 Bft) N-NO 15 0 min 0 W/m 5,7 C 3,0 C 12,9 km/h (3 Bft)
24.12.2006 14:45 7,5 C 88 % 1037,5 hPa 0,0 l/m 13,8 km/h (3 Bft) N 5 0 min 0 W/m 5,6 C 2,7 C 13,8 km/h (3 Bft)
24.12.2006 15:00 7,6 C 88 % 1037,5 hPa 0,0 l/m 12,1 km/h (2 Bft) N-NW 345 0 min 0 W/m 5,7 C 3,7 C 12,1 km/h (2 Bft)
24.12.2006 15:15 7,4 C 89 % 1037,5 hPa 0,0 l/m 13,6 km/h (3 Bft) N-NW 345 0 min 0 W/m 5,7 C 2,7 C 13,6 km/h (3 Bft)
24.12.2006 15:30 7,5 C 88 % 1037,5 hPa 0,0 l/m 8,3 km/h (2 Bft) N-NW 345 0 min 0 W/m 5,6 C 6,0 C 8,3 km/h (2 Bft)
24.12.2006 15:45 7,2 C 89 % 1037,5 hPa 0,0 l/m 7,2 km/h (2 Bft) N 350 0 min 0 W/m 5,5 C 6,5 C 7,2 km/h (2 Bft)
24.12.2006 16:00 6,9 C 90 % 1037,5 hPa 0,0 l/m 4,1 km/h (1 Bft) NW 315 0 min 0 W/m 5,4 C 6,9 C 4,1 km/h (1 Bft)
24.12.2006 16:15 6,5 C 91 % 1037,5 hPa 0,0 l/m 7,7 km/h (2 Bft) N-NW 335 0 min 0 W/m 5,1 C 5,4 C 7,7 km/h (2 Bft)
24.12.2006 16:30 6,4 C 92 % 1036,5 hPa 0,0 l/m 4,6 km/h (1 Bft) NW 320 0 min 0 W/m 5,2 C 6,4 C 4,6 km/h (1 Bft)
24.12.2006 16:45 6,3 C 92 % 1036,5 hPa 0,0 l/m 6,8 km/h (2 Bft) NW 325 0 min 0 W/m 5,1 C 6,0 C 6,8 km/h (2 Bft)
24.12.2006 17:00 6,1 C 92 % 1037,5 hPa 0,0 l/m 4,1 km/h (1 Bft) N-NW 335 0 min 0 W/m 4,9 C 6,1 C 4,1 km/h (1 Bft)
24.12.2006 17:15 6,1 C 93 % 1036,5 hPa 0,0 l/m 7,2 km/h (2 Bft) N-NW 335 0 min 0 W/m 5,1 C 5,4 C 7,2 km/h (2 Bft)
24.12.2006 17:30 6,3 C 94 % 1036,5 hPa 0,0 l/m 10,1 km/h (2 Bft) NW 325 0 min 0 W/m 5,4 C 3,4 C 10,1 km/h (2 Bft)
24.12.2006 17:45 6,2 C 93 % 1036,5 hPa 0,0 l/m 5,5 km/h (2 Bft) NW 315 0 min 0 W/m 5,2 C 6,2 C 5,5 km/h (2 Bft)
24.12.2006 18:00 6,0 C 94 % 1036,5 hPa 0,0 l/m 4,8 km/h (1 Bft) NW 310 0 min 0 W/m 5,1 C 6,0 C 4,8 km/h (1 Bft)
24.12.2006 18:15 5,9 C 94 % 1036,5 hPa 0,0 l/m 5,9 km/h (2 Bft) W-NW 300 0 min 0 W/m 5,0 C 5,9 C 5,9 km/h (2 Bft)
24.12.2006 18:30 6,1 C 95 % 1036,5 hPa 0,0 l/m 11,5 km/h (2 Bft) NW 315 0 min 0 W/m 5,4 C 2,3 C 11,5 km/h (2 Bft)
24.12.2006 18:45 6,3 C 95 % 1036,5 hPa 0,0 l/m 8,1 km/h (2 Bft) NW 320 0 min 0 W/m 5,6 C 4,9 C 8,1 km/h (2 Bft)
24.12.2006 19:00 6,6 C 96 % 1036,5 hPa 0,0 l/m 13,4 km/h (3 Bft) N-NW 335 0 min 0 W/m 6,0 C 1,8 C 13,4 km/h (3 Bft)
24.12.2006 19:15 6,9 C 96 % 1037,5 hPa 0,0 l/m 12,8 km/h (3 Bft) N-NW 330 0 min 0 W/m 6,3 C 2,5 C 12,8 km/h (3 Bft)
24.12.2006 19:30 7,1 C 96 % 1036,5 hPa 0,0 l/m 13,7 km/h (3 Bft) N 350 0 min 0 W/m 6,5 C 2,3 C 13,7 km/h (3 Bft)
24.12.2006 19:45 7,0 C 96 % 1036,5 hPa 0,0 l/m 12,6 km/h (3 Bft) N-NW 345 0 min 0 W/m 6,4 C 2,7 C 12,6 km/h (3 Bft)
24.12.2006 20:00 6,9 C 96 % 1036,5 hPa 0,0 l/m 12,1 km/h (2 Bft) N 350 0 min 0 W/m 6,3 C 2,9 C 12,1 km/h (2 Bft)
24.12.2006 20:15 6,6 C 96 % 1036,5 hPa 0,0 l/m 11,8 km/h (2 Bft) N-NW 335 0 min 0 W/m 6,0 C 2,7 C 11,8 km/h (2 Bft)
24.12.2006 20:30 6,4 C 96 % 1036,5 hPa 0,3 l/m 10,5 km/h (2 Bft) NW 325 0 min 0 W/m 5,8 C 3,3 C 10,5 km/h (2 Bft)
24.12.2006 20:45 6,4 C 96 % 1036,5 hPa 0,0 l/m 9,7 km/h (2 Bft) N-NW 330 0 min 0 W/m 5,8 C 3,8 C 9,7 km/h (2 Bft)
24.12.2006 21:00 6,6 C 96 % 1036,5 hPa 0,0 l/m 10,0 km/h (2 Bft) NW 325 0 min 0 W/m 6,0 C 3,8 C 10,0 km/h (2 Bft)
24.12.2006 21:15 6,8 C 97 % 1036,5 hPa 0,0 l/m 10,5 km/h (2 Bft) N-NW 335 0 min 0 W/m 6,4 C 3,7 C 10,5 km/h (2 Bft)
24.12.2006 21:30 7,1 C 97 % 1037,5 hPa 0,0 l/m 11,5 km/h (2 Bft) N-NW 345 0 min 0 W/m 6,7 C 3,5 C 11,5 km/h (2 Bft)
24.12.2006 21:45 7,2 C 97 % 1036,5 hPa 0,0 l/m 14,8 km/h (3 Bft) N 360 0 min 0 W/m 6,8 C 1,8 C 14,8 km/h (3 Bft)
24.12.2006 22:00 7,5 C 97 % 1036,5 hPa 0,0 l/m 12,5 km/h (2 Bft) N 360 0 min 0 W/m 7,1 C 3,4 C 12,5 km/h (2 Bft)
24.12.2006 22:15 7,6 C 97 % 1037,5 hPa 0,0 l/m 13,3 km/h (3 Bft) N 355 0 min 0 W/m 7,2 C 3,1 C 13,3 km/h (3 Bft)
24.12.2006 22:30 7,7 C 97 % 1037,5 hPa 0,0 l/m 11,7 km/h (2 Bft) N 5 0 min 0 W/m 7,3 C 4,0 C 11,7 km/h (2 Bft)
24.12.2006 22:45 7,8 C 96 % 1036,5 hPa 0,0 l/m 12,5 km/h (2 Bft) N-NO 15 0 min 0 W/m 7,2 C 3,7 C 12,5 km/h (2 Bft)
24.12.2006 23:00 7,9 C 96 % 1036,5 hPa 0,0 l/m 10,3 km/h (2 Bft) N 5 0 min 0 W/m 7,3 C 5,1 C 10,3 km/h (2 Bft)
24.12.2006 23:15 8,0 C 95 % 1037,5 hPa 0,0 l/m 16,6 km/h (3 Bft) N-NO 15 0 min 0 W/m 7,2 C 2,0 C 16,6 km/h (3 Bft)
24.12.2006 23:30 8,0 C 95 % 1036,5 hPa 0,0 l/m 11,5 km/h (2 Bft) N 10 0 min 0 W/m 7,2 C 4,5 C 11,5 km/h (2 Bft)
24.12.2006 23:45 8,0 C 95 % 1036,5 hPa 0,0 l/m 12,1 km/h (2 Bft) N 5 0 min 0 W/m 7,2 C 4,2 C 12,1 km/h (2 Bft)
_ Min-Zeit 18:15 00:31 16:30 - 04:16 - - - - 17:00 13:45 04:16
Minimum _ 5,9 C 86 % 1036,5 hPa - 0,0 km/h (0 Bft) - - - - 4,9 C 0,2 C 0,0 km/h (0 Bft)
_ Max-Zeit 09:45 09:00 00:01 08:30 13:30 - - 00:01 00:01 09:30 09:30 13:30
Maximum _ 9,3 C 97 % 1040,5 hPa 0,3 l/m 19,9 km/h
N-NO (4 Bft)
- - 0 min 0 W/m 8,2 C 8,2 C 19,9 km/h
N-NO (4 Bft)
Durchschnitt _ 7,3 C 93 % 1038,0 hPa #0,6 l/m 8,1 km/h (2 Bft) N - #0 min. 0 W/m 6,2 C 5,2 C 8,1 km/h (2 Bft)
copyright by Holger Just